Terminal Aerodrome Forecast
Issued by NWS

Home | Current Version | Previous Version | Text Only | Print | Product List | Glossary Off
Versions: 1 2 3 4 5 6 7 8 9 10 11 12 13 14 15 16

000
FTUS44 KTSA 041700
TAFRVS
TAF
KRVS 041720Z 0418/0518 01014G22KT 4SM -SN OVC017
      TEMPO 0418/0422 1SM -SN OVC008
     FM042200 01014G20KT P6SM OVC040
     FM050100 02010KT P6SM OVC100
     FM050600 02005KT P6SM BKN250=

USA.gov is the U.S. government's official web portal to all federal, state and local government web resources and services.